RYR4KB LOWK-EDJA
Flight info
| Callsign | RYR4KB |
|---|---|
| Flight time | 0h 43m |
| Altitude | 34000 |
| Route | VILAK DCT ERKIR L608 KPT KPT1C |
| Aircraft | B737/M-SDE2E3FGHIRWXY/LB1 |
Departure
| Time | 2026-04-26 14:55 |
|---|---|
| Airport | Klagenfurt Airport (LOWK) |
Arrival
| Time | 2026-04-26 15:38 |
|---|---|
| Airport | Memmingen Allgau Airport (EDJA) |
| Time | Latitude | Longitude | Altitude | Speed | Heading |
|---|---|---|---|---|---|
| 2026-04-26 14:40 | 46.64843 | 14.32538 | 1463 ft | 0 kts | 75° |
| 2026-04-26 14:51 | 46.64843 | 14.32540 | 1463 ft | 1 kts | 75° |
| 2026-04-26 14:51 | 46.64847 | 14.32564 | 1457 ft | 4 kts | 78° |
| 2026-04-26 14:51 | 46.64843 | 14.32600 | 1463 ft | 4 kts | 126° |
| 2026-04-26 14:51 | 46.64821 | 14.32620 | 1463 ft | 4 kts | 162° |
| 2026-04-26 14:52 | 46.64795 | 14.32627 | 1463 ft | 4 kts | 170° |
| 2026-04-26 14:52 | 46.64762 | 14.32639 | 1463 ft | 6 kts | 166° |
| 2026-04-26 14:52 | 46.64707 | 14.32663 | 1460 ft | 9 kts | 168° |
| 2026-04-26 14:52 | 46.64660 | 14.32611 | 1461 ft | 9 kts | 260° |
| 2026-04-26 14:53 | 46.64671 | 14.32519 | 1463 ft | 9 kts | 277° |
| 2026-04-26 14:53 | 46.64631 | 14.32458 | 1462 ft | 9 kts | 196° |
| 2026-04-26 14:53 | 46.64569 | 14.32432 | 1460 ft | 10 kts | 196° |
| 2026-04-26 14:53 | 46.64516 | 14.32471 | 1455 ft | 10 kts | 90° |
| 2026-04-26 14:54 | 46.64506 | 14.32526 | 1459 ft | 0 kts | 103° |
| 2026-04-26 14:54 | 46.64476 | 14.32681 | 1460 ft | 53 kts | 107° |
| 2026-04-26 14:55 | 46.64285 | 14.33648 | 1459 ft | 144 kts | 106° |
| 2026-04-26 14:55 | 46.63964 | 14.35265 | 2027 ft | 174 kts | 105° |
| 2026-04-26 14:55 | 46.63617 | 14.36932 | 3302 ft | 172 kts | 104° |
| 2026-04-26 14:55 | 46.63267 | 14.38666 | 4228 ft | 191 kts | 106° |
| 2026-04-26 14:56 | 46.62856 | 14.40683 | 4716 ft | 227 kts | 106° |
| 2026-04-26 14:56 | 46.62382 | 14.43052 | 5157 ft | 260 kts | 106° |
| 2026-04-26 14:56 | 46.61936 | 14.45728 | 5982 ft | 277 kts | 92° |
| 2026-04-26 14:56 | 46.62279 | 14.48451 | 7237 ft | 277 kts | 64° |
| 2026-04-26 14:57 | 46.63467 | 14.50640 | 8374 ft | 280 kts | 36° |
| 2026-04-26 14:57 | 46.65235 | 14.51793 | 9507 ft | 281 kts | 8° |
| 2026-04-26 14:57 | 46.67163 | 14.51666 | 10559 ft | 285 kts | 343° |
| 2026-04-26 14:57 | 46.69008 | 14.50287 | 11117 ft | 310 kts | 320° |
| 2026-04-26 14:58 | 46.70383 | 14.47857 | 11923 ft | 322 kts | 297° |
| 2026-04-26 14:58 | 46.70920 | 14.44690 | 12986 ft | 328 kts | 270° |
| 2026-04-26 14:58 | 46.70536 | 14.41399 | 14165 ft | 331 kts | 257° |
| 2026-04-26 14:58 | 46.69862 | 14.38146 | 15009 ft | 340 kts | 255° |
| 2026-04-26 14:59 | 46.69142 | 14.34817 | 15837 ft | 348 kts | 255° |
| 2026-04-26 14:59 | 46.68462 | 14.31431 | 16695 ft | 354 kts | 256° |
| 2026-04-26 14:59 | 46.67850 | 14.28119 | 17547 ft | 359 kts | 257° |
| 2026-04-26 14:59 | 46.67425 | 14.25726 | 18155 ft | 363 kts | 257° |
| 2026-04-26 15:00 | 46.66606 | 14.20970 | 19259 ft | 367 kts | 260° |
| 2026-04-26 15:00 | 46.66547 | 14.17276 | 20114 ft | 367 kts | 279° |
| 2026-04-26 15:00 | 46.66966 | 14.13596 | 21004 ft | 369 kts | 281° |
| 2026-04-26 15:00 | 46.67435 | 14.09885 | 21766 ft | 374 kts | 281° |
| 2026-04-26 15:01 | 46.67904 | 14.06136 | 22565 ft | 379 kts | 281° |
| 2026-04-26 15:01 | 46.68361 | 14.02333 | 23358 ft | 383 kts | 280° |
| 2026-04-26 15:01 | 46.68806 | 13.98496 | 24071 ft | 386 kts | 280° |
| 2026-04-26 15:01 | 46.69248 | 13.94622 | 24726 ft | 389 kts | 280° |
| 2026-04-26 15:02 | 46.69951 | 13.90805 | 25341 ft | 392 kts | 295° |
| 2026-04-26 15:02 | 46.71332 | 13.87368 | 26069 ft | 393 kts | 303° |
| 2026-04-26 15:02 | 46.72850 | 13.84038 | 26729 ft | 395 kts | 304° |
| 2026-04-26 15:02 | 46.74399 | 13.80722 | 27464 ft | 396 kts | 304° |
| 2026-04-26 15:03 | 46.75924 | 13.77463 | 28371 ft | 391 kts | 304° |
| 2026-04-26 15:03 | 46.77442 | 13.74198 | 29362 ft | 386 kts | 303° |
| 2026-04-26 15:03 | 46.78932 | 13.70965 | 30245 ft | 383 kts | 303° |
| 2026-04-26 15:03 | 46.80429 | 13.67694 | 30904 ft | 382 kts | 303° |
| 2026-04-26 15:04 | 46.81885 | 13.64495 | 31491 ft | 382 kts | 303° |
| 2026-04-26 15:04 | 46.83347 | 13.61271 | 32174 ft | 380 kts | 303° |
| 2026-04-26 15:04 | 46.84801 | 13.58057 | 32842 ft | 378 kts | 302° |
| 2026-04-26 15:04 | 46.86243 | 13.54863 | 33461 ft | 377 kts | 302° |
| 2026-04-26 15:05 | 46.87686 | 13.51664 | 34035 ft | 376 kts | 302° |
| 2026-04-26 15:05 | 46.90596 | 13.45197 | 34109 ft | 380 kts | 302° |
| 2026-04-26 15:06 | 46.93013 | 13.39815 | 34123 ft | 386 kts | 302° |
| 2026-04-26 15:06 | 46.96038 | 13.33062 | 34145 ft | 407 kts | 302° |
| 2026-04-26 15:07 | 47.00837 | 13.22320 | 34121 ft | 429 kts | 302° |
| 2026-04-26 15:07 | 47.04097 | 13.15001 | 34129 ft | 428 kts | 302° |
| 2026-04-26 15:08 | 47.07344 | 13.07693 | 34151 ft | 427 kts | 302° |
| 2026-04-26 15:08 | 47.10559 | 13.00435 | 34147 ft | 426 kts | 302° |
| 2026-04-26 15:09 | 47.13778 | 12.93150 | 34120 ft | 424 kts | 302° |
| 2026-04-26 15:09 | 47.16973 | 12.85898 | 34118 ft | 421 kts | 301° |
| 2026-04-26 15:10 | 47.19578 | 12.79973 | 34143 ft | 419 kts | 301° |
| 2026-04-26 15:10 | 47.23263 | 12.71569 | 34150 ft | 418 kts | 301° |
| 2026-04-26 15:11 | 47.26411 | 12.64368 | 34142 ft | 417 kts | 301° |
| 2026-04-26 15:11 | 47.29548 | 12.57173 | 34151 ft | 417 kts | 301° |
| 2026-04-26 15:12 | 47.32676 | 12.49981 | 34155 ft | 416 kts | 301° |
| 2026-04-26 15:12 | 47.35799 | 12.42778 | 34160 ft | 417 kts | 301° |
| 2026-04-26 15:13 | 47.38896 | 12.35619 | 34157 ft | 417 kts | 301° |
| 2026-04-26 15:13 | 47.42002 | 12.28422 | 34136 ft | 406 kts | 301° |
| 2026-04-26 15:14 | 47.43488 | 12.24977 | 34135 ft | 389 kts | 300° |
| 2026-04-26 15:14 | 47.44914 | 12.21665 | 34129 ft | 374 kts | 300° |
| 2026-04-26 15:14 | 47.46282 | 12.18483 | 34155 ft | 362 kts | 300° |
| 2026-04-26 15:14 | 47.47632 | 12.15331 | 33765 ft | 364 kts | 300° |
| 2026-04-26 15:15 | 47.48983 | 12.12175 | 33299 ft | 363 kts | 300° |
| 2026-04-26 15:15 | 47.50331 | 12.09024 | 32814 ft | 362 kts | 300° |
| 2026-04-26 15:15 | 47.51681 | 12.05868 | 32256 ft | 362 kts | 300° |
| 2026-04-26 15:15 | 47.52987 | 12.02690 | 31795 ft | 360 kts | 295° |
| 2026-04-26 15:16 | 47.53973 | 11.99313 | 31367 ft | 357 kts | 288° |
| 2026-04-26 15:16 | 47.54586 | 11.95766 | 30908 ft | 355 kts | 281° |
| 2026-04-26 15:16 | 47.55079 | 11.92205 | 30501 ft | 353 kts | 281° |
| 2026-04-26 15:16 | 47.55552 | 11.88692 | 30064 ft | 352 kts | 281° |
| 2026-04-26 15:17 | 47.56028 | 11.85153 | 29607 ft | 349 kts | 281° |
| 2026-04-26 15:17 | 47.56350 | 11.82784 | 29285 ft | 346 kts | 281° |
| 2026-04-26 15:17 | 47.56978 | 11.78193 | 28719 ft | 341 kts | 281° |
| 2026-04-26 15:17 | 47.57449 | 11.74771 | 28286 ft | 338 kts | 281° |
| 2026-04-26 15:18 | 47.57917 | 11.71370 | 27875 ft | 335 kts | 281° |
| 2026-04-26 15:18 | 47.58380 | 11.68002 | 27423 ft | 333 kts | 281° |
| 2026-04-26 15:18 | 47.58840 | 11.64659 | 27015 ft | 330 kts | 281° |
| 2026-04-26 15:18 | 47.59297 | 11.61333 | 26586 ft | 328 kts | 281° |
| 2026-04-26 15:19 | 47.59750 | 11.58021 | 26173 ft | 326 kts | 281° |
| 2026-04-26 15:19 | 47.60199 | 11.54732 | 25754 ft | 324 kts | 280° |
| 2026-04-26 15:19 | 47.60645 | 11.51467 | 25349 ft | 323 kts | 281° |
| 2026-04-26 15:19 | 47.61088 | 11.48212 | 24932 ft | 321 kts | 281° |
| 2026-04-26 15:20 | 47.61530 | 11.44959 | 24534 ft | 320 kts | 280° |
| 2026-04-26 15:20 | 47.61966 | 11.41734 | 24115 ft | 319 kts | 280° |
| 2026-04-26 15:20 | 47.62397 | 11.38506 | 23527 ft | 322 kts | 280° |
| 2026-04-26 15:20 | 47.62806 | 11.35217 | 22932 ft | 324 kts | 279° |
| 2026-04-26 15:21 | 47.63206 | 11.31918 | 22424 ft | 324 kts | 279° |
| 2026-04-26 15:21 | 47.63596 | 11.28690 | 21991 ft | 321 kts | 279° |
| 2026-04-26 15:21 | 47.63992 | 11.25401 | 21571 ft | 318 kts | 279° |
| 2026-04-26 15:21 | 47.64382 | 11.22171 | 21141 ft | 317 kts | 279° |
| 2026-04-26 15:22 | 47.64768 | 11.18969 | 20731 ft | 315 kts | 279° |
| 2026-04-26 15:22 | 47.65146 | 11.15826 | 20326 ft | 313 kts | 279° |
| 2026-04-26 15:22 | 47.65527 | 11.12658 | 19927 ft | 311 kts | 279° |
| 2026-04-26 15:22 | 47.65906 | 11.09509 | 19520 ft | 309 kts | 279° |
| 2026-04-26 15:23 | 47.66281 | 11.06378 | 19105 ft | 308 kts | 279° |
| 2026-04-26 15:23 | 47.66654 | 11.03261 | 18712 ft | 306 kts | 279° |
| 2026-04-26 15:23 | 47.67025 | 11.00156 | 18275 ft | 305 kts | 279° |
| 2026-04-26 15:23 | 47.67399 | 10.97021 | 17829 ft | 304 kts | 279° |
| 2026-04-26 15:24 | 47.67765 | 10.93940 | 17402 ft | 302 kts | 279° |
| 2026-04-26 15:24 | 47.68128 | 10.90880 | 16977 ft | 300 kts | 279° |
| 2026-04-26 15:24 | 47.68487 | 10.87841 | 16568 ft | 298 kts | 279° |
| 2026-04-26 15:24 | 47.68840 | 10.84847 | 16164 ft | 296 kts | 279° |
| 2026-04-26 15:25 | 47.69193 | 10.81848 | 15762 ft | 294 kts | 279° |
| 2026-04-26 15:25 | 47.69430 | 10.79830 | 15500 ft | 293 kts | 279° |
| 2026-04-26 15:25 | 47.69890 | 10.75904 | 14974 ft | 290 kts | 279° |
| 2026-04-26 15:25 | 47.70235 | 10.72957 | 14582 ft | 289 kts | 279° |
| 2026-04-26 15:26 | 47.70577 | 10.70017 | 14186 ft | 288 kts | 279° |
| 2026-04-26 15:26 | 47.70917 | 10.67095 | 13759 ft | 286 kts | 279° |
| 2026-04-26 15:26 | 47.71255 | 10.64189 | 13323 ft | 285 kts | 279° |
| 2026-04-26 15:26 | 47.71589 | 10.61301 | 12908 ft | 283 kts | 279° |
| 2026-04-26 15:27 | 47.71920 | 10.58434 | 12500 ft | 281 kts | 279° |
| 2026-04-26 15:27 | 47.72249 | 10.55583 | 12105 ft | 279 kts | 278° |
| 2026-04-26 15:27 | 47.72576 | 10.52743 | 11694 ft | 278 kts | 278° |
| 2026-04-26 15:27 | 47.72900 | 10.49918 | 11307 ft | 276 kts | 278° |
| 2026-04-26 15:28 | 47.73222 | 10.47111 | 10907 ft | 275 kts | 278° |
| 2026-04-26 15:28 | 47.73542 | 10.44315 | 10516 ft | 274 kts | 278° |
| 2026-04-26 15:28 | 47.73858 | 10.41539 | 10310 ft | 268 kts | 278° |
| 2026-04-26 15:28 | 47.74167 | 10.38831 | 9974 ft | 266 kts | 278° |
| 2026-04-26 15:29 | 47.74474 | 10.36129 | 9600 ft | 264 kts | 278° |
| 2026-04-26 15:29 | 47.74899 | 10.33481 | 9209 ft | 264 kts | 288° |
| 2026-04-26 15:29 | 47.76248 | 10.28448 | 8467 ft | 263 kts | 291° |
| 2026-04-26 15:30 | 47.77618 | 10.23430 | 7757 ft | 258 kts | 290° |
| 2026-04-26 15:30 | 47.78274 | 10.20973 | 7395 ft | 253 kts | 290° |
| 2026-04-26 15:30 | 47.78907 | 10.18575 | 7063 ft | 246 kts | 290° |
| 2026-04-26 15:31 | 47.79526 | 10.16210 | 6727 ft | 239 kts | 291° |
| 2026-04-26 15:31 | 47.80667 | 10.11836 | 6406 ft | 219 kts | 291° |
| 2026-04-26 15:31 | 47.81231 | 10.09775 | 6303 ft | 211 kts | 300° |
| 2026-04-26 15:32 | 47.82961 | 10.07759 | 6244 ft | 202 kts | 329° |
| 2026-04-26 15:32 | 47.84524 | 10.06364 | 6086 ft | 190 kts | 330° |
| 2026-04-26 15:32 | 47.85626 | 10.05382 | 6001 ft | 181 kts | 330° |
| 2026-04-26 15:33 | 47.86714 | 10.04415 | 5809 ft | 181 kts | 330° |
| 2026-04-26 15:33 | 47.87812 | 10.03441 | 5478 ft | 183 kts | 332° |
| 2026-04-26 15:33 | 47.88924 | 10.02616 | 5209 ft | 174 kts | 354° |
| 2026-04-26 15:33 | 47.89974 | 10.03068 | 5035 ft | 157 kts | 47° |
| 2026-04-26 15:34 | 47.90644 | 10.04326 | 4883 ft | 160 kts | 52° |
| 2026-04-26 15:34 | 47.91344 | 10.05620 | 4715 ft | 158 kts | 51° |
| 2026-04-26 15:34 | 47.91991 | 10.06882 | 4547 ft | 144 kts | 52° |
| 2026-04-26 15:34 | 47.92554 | 10.08055 | 4334 ft | 135 kts | 55° |
| 2026-04-26 15:35 | 47.93040 | 10.09200 | 4183 ft | 126 kts | 58° |
| 2026-04-26 15:35 | 47.93496 | 10.10322 | 3939 ft | 125 kts | 59° |
| 2026-04-26 15:35 | 47.93921 | 10.11399 | 3780 ft | 125 kts | 58° |
| 2026-04-26 15:35 | 47.94363 | 10.12516 | 3659 ft | 130 kts | 58° |
| 2026-04-26 15:36 | 47.94816 | 10.13660 | 3496 ft | 127 kts | 58° |
| 2026-04-26 15:36 | 47.95244 | 10.14754 | 3355 ft | 125 kts | 57° |
| 2026-04-26 15:36 | 47.95692 | 10.15880 | 3153 ft | 126 kts | 58° |
| 2026-04-26 15:36 | 47.96125 | 10.16977 | 2971 ft | 122 kts | 58° |
| 2026-04-26 15:37 | 47.96554 | 10.18072 | 2837 ft | 124 kts | 58° |
| 2026-04-26 15:37 | 47.96997 | 10.19199 | 2655 ft | 128 kts | 57° |
| 2026-04-26 15:37 | 47.97453 | 10.20342 | 2462 ft | 127 kts | 57° |
| 2026-04-26 15:37 | 47.97898 | 10.21455 | 2255 ft | 126 kts | 56° |
| 2026-04-26 15:38 | 47.98342 | 10.22587 | 2118 ft | 127 kts | 57° |
| 2026-04-26 15:38 | 47.98753 | 10.23621 | 2078 ft | 99 kts | 59° |
| 2026-04-26 15:38 | 47.99025 | 10.24309 | 2067 ft | 55 kts | 59° |
| 2026-04-26 15:38 | 47.99168 | 10.24667 | 2066 ft | 33 kts | 60° |
| 2026-04-26 15:39 | 47.99228 | 10.24849 | 2065 ft | 9 kts | 81° |
| 2026-04-26 15:39 | 47.99245 | 10.24886 | 2065 ft | 2 kts | 347° |
| 2026-04-26 15:39 | 47.99244 | 10.24862 | 2065 ft | 4 kts | 240° |
| 2026-04-26 15:39 | 47.99239 | 10.24849 | 2065 ft | 5 kts | 237° |
| 2026-04-26 15:40 | 47.99200 | 10.24758 | 2066 ft | 7 kts | 237° |
| 2026-04-26 15:40 | 47.99174 | 10.24693 | 2066 ft | 8 kts | 240° |
| 2026-04-26 15:40 | 47.99143 | 10.24611 | 2066 ft | 10 kts | 240° |
| 2026-04-26 15:40 | 47.99103 | 10.24514 | 2067 ft | 13 kts | 239° |
| 2026-04-26 15:41 | 47.99050 | 10.24382 | 2067 ft | 17 kts | 239° |
| 2026-04-26 15:41 | 47.98985 | 10.24221 | 2069 ft | 19 kts | 239° |
| 2026-04-26 15:41 | 47.98915 | 10.24042 | 2071 ft | 21 kts | 240° |
| 2026-04-26 15:41 | 47.98850 | 10.23868 | 2074 ft | 14 kts | 244° |
| 2026-04-26 15:42 | 47.98832 | 10.23789 | 2074 ft | 7 kts | 284° |
| 2026-04-26 15:42 | 47.98872 | 10.23741 | 2077 ft | 8 kts | 329° |
| 2026-04-26 15:42 | 47.98911 | 10.23655 | 2073 ft | 14 kts | 276° |
| 2026-04-26 15:42 | 47.98879 | 10.23504 | 2077 ft | 15 kts | 251° |
| 2026-04-26 15:43 | 47.98856 | 10.23399 | 2080 ft | 9 kts | 251° |
| 2026-04-26 15:43 | 47.98835 | 10.23310 | 2080 ft | 9 kts | 249° |
| 2026-04-26 15:43 | 47.98800 | 10.23169 | 2079 ft | 9 kts | 252° |
| 2026-04-26 15:44 | 47.98782 | 10.23087 | 2078 ft | 8 kts | 251° |
| 2026-04-26 15:44 | 47.98723 | 10.22921 | 2077 ft | 6 kts | 231° |
| 2026-04-26 15:44 | 47.98708 | 10.22862 | 2076 ft | 6 kts | 261° |
| 2026-04-26 15:45 | 47.98712 | 10.22768 | 2076 ft | 3 kts | 324° |
| 2026-04-26 15:45 | 47.98734 | 10.22772 | 2076 ft | 4 kts | 27° |
| 2026-04-26 15:46 | 47.98746 | 10.22793 | 2075 ft | 0 kts | 51° |
| 2026-04-26 15:46 | 47.98748 | 10.22795 | 2075 ft | 0 kts | 51° |